Time;durP1;ratioP1;P1;durP2;ratioP2;P2;SDS_P1;SDS_P2;PMS_P1;PMS_P2;Temp;Humidity;BMP_temperature;BMP_pressure;BME280_temperature;BME280_humidity;BME280_pressure;Samples;Min_cycle;Max_cycle;Signal;HPM_P1;HPM_P2
2022/04/08 00:00:59;;;;;;;0.40;0.30;;;;;;;7.47;92.19;97959.44;5095528;28;20476;-74
2022/04/08 00:03:25;;;;;;;0.40;0.30;;;;;;;7.47;91.33;97960.22;5095781;28;20453;-74
2022/04/08 00:05:52;;;;;;;0.40;0.30;;;;;;;7.42;93.78;97957.00;5096084;28;20440;-73
2022/04/08 00:08:19;;;;;;;0.40;0.30;;;;;;;7.32;92.99;97959.06;5095738;28;20468;-73
2022/04/08 00:10:45;;;;;;;0.40;0.30;;;;;;;7.30;93.40;97955.16;5095545;28;20420;-74
2022/04/08 00:13:13;;;;;;;0.40;0.30;;;;;;;7.31;93.45;97954.81;5095501;28;20459;-74
2022/04/08 00:15:40;;;;;;;0.40;0.30;;;;;;;7.38;92.08;97962.28;5097050;28;20444;-74
2022/04/08 00:18:07;;;;;;;0.40;0.30;;;;;;;7.38;93.77;97961.50;5095550;28;20498;-74
2022/04/08 00:20:34;;;;;;;0.40;0.30;;;;;;;7.31;95.32;97970.97;5095447;28;20946;-74
2022/04/08 00:23:01;;;;;;;0.40;0.20;;;;;;;7.30;95.51;97990.97;5095250;28;20447;-73
2022/04/08 00:25:28;;;;;;;0.40;0.30;;;;;;;7.20;98.14;98014.88;5095122;28;20824;-75
2022/04/08 00:27:54;;;;;;;0.40;0.30;;;;;;;7.08;99.33;98002.22;5096000;28;20937;-76
2022/04/08 00:30:22;;;;;;;0.40;0.30;;;;;;;6.95;100.00;98022.22;5095437;28;20440;-75
2022/04/08 00:32:51;;;;;;;0.40;0.20;;;;;;;6.82;100.00;98037.63;5095818;28;20444;-77
2022/04/08 00:35:17;;;;;;;0.40;0.30;;;;;;;6.74;100.00;98043.91;5100433;28;20472;-80
2022/04/08 00:37:43;;;;;;;0.40;0.30;;;;;;;6.64;100.00;98042.47;5098355;28;20451;-80
2022/04/08 00:40:11;;;;;;;0.40;0.30;;;;;;;6.58;100.00;98055.34;5100759;28;20452;-77
2022/04/08 00:42:40;;;;;;;0.40;0.30;;;;;;;6.56;100.00;98046.84;5098817;28;20547;-76
2022/04/08 00:45:07;;;;;;;0.40;0.30;;;;;;;6.53;100.00;98046.72;5096931;28;20490;-77
2022/04/08 00:47:36;;;;;;;0.40;0.30;;;;;;;6.52;100.00;98056.69;5096979;28;20933;-79
2022/04/08 00:50:04;;;;;;;0.40;0.30;;;;;;;6.49;100.00;98075.41;5097867;28;20966;-79
2022/04/08 00:52:31;;;;;;;0.40;0.30;;;;;;;6.48;100.00;98065.78;5097857;28;20959;-78
2022/04/08 00:54:57;;;;;;;0.40;0.30;;;;;;;6.48;100.00;98082.69;5098989;28;20457;-78
2022/04/08 00:57:24;;;;;;;0.40;0.30;;;;;;;6.48;100.00;98093.44;5095858;28;20937;-76
2022/04/08 00:59:51;;;;;;;0.40;0.30;;;;;;;6.50;100.00;98101.16;5094964;28;20436;-76
2022/04/08 01:02:18;;;;;;;0.40;0.30;;;;;;;6.48;100.00;98101.50;5094773;28;20484;-74
2022/04/08 01:04:46;;;;;;;0.40;0.30;;;;;;;6.48;100.00;98117.63;5095053;28;20456;-76
2022/04/08 01:07:12;;;;;;;0.40;0.30;;;;;;;6.57;100.00;98123.69;5095012;28;20456;-78
2022/04/08 01:09:39;;;;;;;0.40;0.30;;;;;;;6.71;99.60;98123.38;5098449;28;20860;-77
2022/04/08 01:12:06;;;;;;;0.40;0.30;;;;;;;6.80;97.30;98142.09;5103469;28;20444;-77
2022/04/08 01:14:32;;;;;;;0.40;0.30;;;;;;;6.89;95.93;98145.44;5096261;28;20452;-78
2022/04/08 01:16:59;;;;;;;0.40;0.30;;;;;;;6.85;97.60;98154.53;5097700;28;20452;-79
2022/04/08 01:19:25;;;;;;;0.40;0.30;;;;;;;6.86;95.71;98145.34;5096749;28;20473;-77
2022/04/08 01:21:53;;;;;;;0.40;0.20;;;;;;;6.88;95.95;98164.63;5099611;28;20515;-77
2022/04/08 01:24:22;;;;;;;0.40;0.30;;;;;;;6.91;96.06;98188.19;5103345;28;20476;-77
2022/04/08 01:26:52;;;;;;;0.40;0.30;;;;;;;6.90;96.25;98181.22;5094606;28;20443;-75
2022/04/08 01:29:18;;;;;;;0.40;0.30;;;;;;;6.96;94.84;98199.50;5094053;28;20448;-74
2022/04/08 01:31:45;;;;;;;0.40;0.30;;;;;;;7.03;95.09;98194.34;5094215;28;20532;-75
2022/04/08 01:34:12;;;;;;;0.40;0.20;;;;;;;6.97;95.58;98202.97;5094083;28;20468;-74
2022/04/08 01:36:38;;;;;;;0.40;0.30;;;;;;;6.98;94.58;98199.94;5094119;28;20432;-74
2022/04/08 01:39:05;;;;;;;0.40;0.30;;;;;;;7.05;95.02;98210.94;5094126;28;20436;-75
2022/04/08 01:41:32;;;;;;;0.40;0.30;;;;;;;7.03;94.73;98220.47;5093977;28;20534;-74
2022/04/08 01:43:59;;;;;;;0.40;0.23;;;;;;;7.03;93.97;98223.16;5093625;28;21003;-75
2022/04/08 01:46:26;;;;;;;0.40;0.30;;;;;;;7.07;94.58;98232.13;5093873;28;20452;-73
2022/04/08 01:48:54;;;;;;;0.40;0.20;;;;;;;7.12;92.68;98223.06;5093314;28;20857;-75
2022/04/08 01:51:21;;;;;;;0.40;0.20;;;;;;;7.13;93.42;98236.19;5093504;28;20849;-75
2022/04/08 01:53:47;;;;;;;0.40;0.30;;;;;;;7.05;93.46;98237.88;5093722;28;20460;-74
2022/04/08 01:56:14;;;;;;;0.40;0.30;;;;;;;7.04;92.62;98247.06;5093741;28;20437;-74
2022/04/08 01:58:40;;;;;;;0.40;0.30;;;;;;;7.11;93.49;98243.03;5093817;28;20436;-74
2022/04/08 02:01:08;;;;;;;0.40;0.30;;;;;;;7.08;92.10;98244.47;5093685;28;20484;-75
2022/04/08 02:03:34;;;;;;;0.40;0.30;;;;;;;7.07;93.45;98257.16;5093617;28;20453;-74
2022/04/08 02:06:01;;;;;;;0.40;0.30;;;;;;;7.17;92.26;98263.22;5093648;28;20444;-74
2022/04/08 02:08:27;;;;;;;0.40;0.30;;;;;;;7.18;92.37;98260.19;5093653;28;20444;-73
2022/04/08 02:10:54;;;;;;;0.40;0.30;;;;;;;7.18;93.12;98260.19;5093645;28;20448;-73
2022/04/08 02:13:20;;;;;;;0.40;0.30;;;;;;;7.21;92.17;98270.28;5093416;28;20884;-74
2022/04/08 02:15:47;;;;;;;0.40;0.30;;;;;;;7.30;90.25;98267.47;5093638;28;20447;-76
2022/04/08 02:18:15;;;;;;;0.40;0.30;;;;;;;7.33;90.28;98272.97;5093527;28;20844;-71
2022/04/08 02:20:42;;;;;;;0.40;0.30;;;;;;;7.29;90.73;98282.06;5093514;28;20479;-75
2022/04/08 02:23:09;;;;;;;0.40;0.30;;;;;;;7.30;90.02;98289.00;5093415;28;20484;-75
2022/04/08 02:25:35;;;;;;;0.40;0.30;;;;;;;7.32;90.14;98287.56;5093442;28;20425;-75
2022/04/08 02:28:03;;;;;;;0.40;0.30;;;;;;;7.34;89.16;98281.84;5093095;28;20825;-75
2022/04/08 02:30:30;;;;;;;0.40;0.30;;;;;;;7.34;88.95;98296.09;5093388;28;20436;-76
2022/04/08 02:32:57;;;;;;;0.40;0.30;;;;;;;7.37;86.88;98299.25;5093066;28;20437;-75
2022/04/08 02:35:25;;;;;;;0.40;0.20;;;;;;;7.36;88.74;98289.59;5093295;28;20494;-76
2022/04/08 02:37:51;;;;;;;0.40;0.30;;;;;;;7.39;86.77;98308.53;5093392;28;20496;-77
2022/04/08 02:40:18;;;;;;;0.40;0.30;;;;;;;7.38;87.43;98304.28;5093387;28;20845;-76
2022/04/08 02:42:44;;;;;;;0.40;0.30;;;;;;;7.41;86.98;98319.00;5092971;28;21031;-76
2022/04/08 02:45:11;;;;;;;0.40;0.30;;;;;;;7.46;86.34;98318.78;5093541;28;20464;-76
2022/04/08 02:47:41;;;;;;;0.40;0.30;;;;;;;7.51;85.13;98316.63;5093312;28;20436;-76
2022/04/08 02:50:08;;;;;;;0.40;0.30;;;;;;;7.51;85.87;98322.03;5093541;28;20440;-76
2022/04/08 02:52:36;;;;;;;0.40;0.20;;;;;;;7.56;84.72;98329.88;5093389;28;20448;-76
2022/04/08 02:55:03;;;;;;;0.40;0.30;;;;;;;7.50;85.78;98333.16;5093265;28;20463;-77
2022/04/08 02:57:30;;;;;;;0.40;0.30;;;;;;;7.55;85.27;98339.09;5093276;28;20428;-76
2022/04/08 02:59:56;;;;;;;0.40;0.30;;;;;;;7.61;84.09;98333.47;5095304;28;20436;-76
2022/04/08 03:02:22;;;;;;;0.40;0.30;;;;;;;7.53;86.52;98333.25;5097031;28;20537;-75
2022/04/08 03:04:49;;;;;;;0.40;0.30;;;;;;;7.47;87.14;98349.97;5097061;28;20469;-76
2022/04/08 03:07:15;;;;;;;0.40;0.30;;;;;;;7.46;86.55;98356.47;5096730;28;21010;-75
2022/04/08 03:09:43;;;;;;;0.40;0.30;;;;;;;7.47;86.05;98349.97;5096980;28;20440;-74
2022/04/08 03:12:10;;;;;;;0.40;0.30;;;;;;;7.47;86.18;98363.44;5096863;28;20436;-75
2022/04/08 03:14:37;;;;;;;0.40;0.30;;;;;;;7.49;85.21;98363.91;5096966;28;20495;-76
2022/04/08 03:17:03;;;;;;;0.40;0.30;;;;;;;7.50;86.16;98374.31;5097049;28;20537;-76
2022/04/08 03:19:30;;;;;;;0.40;0.20;;;;;;;7.47;85.24;98375.00;5096858;28;20945;-73
2022/04/08 03:21:56;;;;;;;0.40;0.30;;;;;;;7.55;84.75;98392.19;5096662;28;20537;-76
2022/04/08 03:24:23;;;;;;;0.40;0.30;;;;;;;7.51;84.91;98386.66;5096677;28;20478;-78
2022/04/08 03:26:51;;;;;;;0.40;0.30;;;;;;;7.59;85.16;98404.66;5096871;28;20943;-76
2022/04/08 03:29:18;;;;;;;0.40;0.20;;;;;;;7.63;83.73;98420.94;5097321;28;20539;-77
2022/04/08 03:31:44;;;;;;;0.40;0.30;;;;;;;7.68;83.70;98409.16;5097937;28;20436;-78
2022/04/08 03:34:11;;;;;;;0.40;0.30;;;;;;;7.63;84.86;98409.38;5104239;28;20502;-77
2022/04/08 03:36:37;;;;;;;0.40;0.33;;;;;;;7.61;84.56;98420.47;5102507;28;20444;-77
2022/04/08 03:39:03;;;;;;;0.40;0.30;;;;;;;7.56;84.89;98424.16;5097276;28;20439;-77
2022/04/08 03:41:30;;;;;;;0.40;0.30;;;;;;;7.52;85.56;98433.25;5098007;28;20498;-78
2022/04/08 03:43:58;;;;;;;0.40;0.27;;;;;;;7.53;86.54;98432.94;5097574;28;20463;-78
2022/04/08 03:46:25;;;;;;;0.40;0.30;;;;;;;7.49;87.20;98445.50;5098647;28;20471;-77
2022/04/08 03:48:51;;;;;;;0.40;0.30;;;;;;;7.53;87.61;98437.53;5098800;28;20447;-78
2022/04/08 03:51:17;;;;;;;0.40;0.30;;;;;;;7.47;87.97;98449.63;5097467;28;20852;-78
2022/04/08 03:53:44;;;;;;;0.40;0.30;;;;;;;7.43;88.29;98464.88;5097790;28;20452;-78
2022/04/08 03:56:10;;;;;;;0.40;0.30;;;;;;;7.43;89.75;98475.66;5097428;28;20428;-77
2022/04/08 03:58:37;;;;;;;0.40;0.30;;;;;;;7.31;91.08;98477.19;5097998;28;20448;-78
2022/04/08 04:01:04;;;;;;;0.40;0.30;;;;;;;7.25;90.86;98485.78;5097646;28;20444;-77
2022/04/08 04:03:31;;;;;;;0.40;0.20;;;;;;;7.12;92.02;98498.41;5096453;28;20487;-76
2022/04/08 04:05:58;;;;;;;0.40;0.30;;;;;;;7.03;92.35;98505.78;5095885;28;20452;-76
2022/04/08 04:08:24;;;;;;;0.40;0.27;;;;;;;7.00;91.40;98536.06;5095885;28;20483;-76
2022/04/08 04:10:51;;;;;;;0.40;0.23;;;;;;;6.96;88.29;98527.84;5095708;28;20835;-77
2022/04/08 04:13:17;;;;;;;0.40;0.30;;;;;;;6.86;87.35;98530.09;5097173;28;20453;-77
2022/04/08 04:15:44;;;;;;;0.40;0.30;;;;;;;6.81;86.77;98549.94;5096659;28;20840;-77
2022/04/08 04:18:11;;;;;;;0.40;0.30;;;;;;;6.73;87.01;98566.91;5096926;28;20445;-76
2022/04/08 04:20:38;;;;;;;0.40;0.30;;;;;;;6.69;86.33;98561.41;5097089;28;20444;-77
2022/04/08 04:23:04;;;;;;;0.40;0.30;;;;;;;6.63;85.19;98581.53;5097141;28;20495;-77
2022/04/08 04:25:31;;;;;;;0.40;0.30;;;;;;;6.64;86.29;98583.13;5097120;28;20424;-77
2022/04/08 04:27:57;;;;;;;0.40;0.30;;;;;;;6.66;84.16;98617.75;5096257;28;20861;-77
2022/04/08 04:30:26;;;;;;;0.40;0.30;;;;;;;6.61;83.80;98615.25;5096786;28;20432;-77
2022/04/08 04:32:53;;;;;;;0.40;0.27;;;;;;;6.59;83.82;98620.94;5096630;28;20520;-77
2022/04/08 04:35:21;;;;;;;0.40;0.30;;;;;;;6.46;85.17;98632.69;5096188;28;20858;-77
2022/04/08 04:37:47;;;;;;;0.40;0.30;;;;;;;6.39;86.14;98637.78;5096778;28;20902;-78
2022/04/08 04:40:14;;;;;;;0.40;0.30;;;;;;;6.33;85.89;98631.81;5095286;28;20441;-76
2022/04/08 04:42:40;;;;;;;0.40;0.30;;;;;;;6.31;86.22;98642.88;5094991;28;20491;-75
2022/04/08 04:45:07;;;;;;;0.40;0.30;;;;;;;6.24;87.23;98650.66;5094814;28;20472;-75
2022/04/08 04:47:33;;;;;;;0.40;0.30;;;;;;;6.26;86.81;98651.09;5094516;28;20938;-71
2022/04/08 04:50:00;;;;;;;0.40;0.30;;;;;;;6.32;87.09;98647.13;5094792;28;20440;-76
2022/04/08 04:52:28;;;;;;;0.40;0.30;;;;;;;6.27;87.29;98660.75;5094744;28;20443;-76
2022/04/08 04:54:56;;;;;;;0.40;0.30;;;;;;;6.29;87.88;98665.81;5095122;28;20864;-76
2022/04/08 04:57:22;;;;;;;0.40;0.30;;;;;;;6.28;87.75;98675.75;5094955;28;20774;-76
2022/04/08 04:59:49;;;;;;;0.40;0.30;;;;;;;6.19;88.74;98682.25;5094541;28;20960;-74
2022/04/08 05:02:15;;;;;;;0.40;0.30;;;;;;;6.23;88.33;98692.06;5095617;28;20480;-77
2022/04/08 05:04:42;;;;;;;0.40;0.30;;;;;;;6.33;88.71;98693.66;5096176;28;20463;-77
2022/04/08 05:07:08;;;;;;;0.40;0.30;;;;;;;6.21;90.96;98690.81;5094840;28;20501;-76
2022/04/08 05:09:39;;;;;;;0.40;0.30;;;;;;;6.21;90.83;98704.25;5094729;28;20490;-77
2022/04/08 05:12:07;;;;;;;0.40;0.30;;;;;;;6.18;90.38;98708.34;5094778;28;20428;-77
2022/04/08 05:14:33;;;;;;;0.40;0.33;;;;;;;6.14;91.40;98718.16;5094146;28;20974;-76
2022/04/08 05:17:00;;;;;;;0.40;0.20;;;;;;;6.18;89.60;98726.38;5095200;28;20448;-77
2022/04/08 05:19:26;;;;;;;0.40;0.20;;;;;;;6.23;90.09;98710.88;5095518;28;20448;-77
2022/04/08 05:21:53;;;;;;;0.40;0.30;;;;;;;6.29;89.48;98724.97;5095342;28;20447;-77
2022/04/08 05:24:20;;;;;;;0.40;0.30;;;;;;;6.29;90.86;98722.28;5093263;28;20472;-76
2022/04/08 05:26:48;;;;;;;0.40;0.30;;;;;;;6.34;90.42;98726.69;5094310;28;20449;-76
2022/04/08 05:29:14;;;;;;;0.40;0.30;;;;;;;6.44;91.12;98731.72;5094158;28;20855;-76
2022/04/08 05:31:41;;;;;;;0.40;0.30;;;;;;;6.34;90.69;98742.81;5094273;28;20440;-75
2022/04/08 05:34:07;;;;;;;0.40;0.30;;;;;;;6.40;90.76;98747.72;5094087;28;20476;-75
2022/04/08 05:36:33;;;;;;;0.40;0.30;;;;;;;6.45;91.43;98749.44;5094012;28;20485;-75
2022/04/08 05:39:00;;;;;;;0.40;0.30;;;;;;;6.42;91.08;98764.34;5094122;28;20448;-75
2022/04/08 05:41:26;;;;;;;0.40;0.30;;;;;;;6.39;91.41;98767.66;5094055;28;20463;-74
2022/04/08 05:43:54;;;;;;;0.40;0.30;;;;;;;6.42;91.26;98769.72;5093866;28;20483;-74
2022/04/08 05:46:20;;;;;;;0.40;0.20;;;;;;;6.51;90.85;98783.94;5094012;28;20443;-75
2022/04/08 05:48:47;;;;;;;0.40;0.30;;;;;;;6.44;91.79;98777.44;5093867;28;20440;-74
2022/04/08 05:51:13;;;;;;;0.40;0.30;;;;;;;6.52;90.55;98782.81;5093844;28;20461;-74
2022/04/08 05:53:40;;;;;;;0.40;0.20;;;;;;;6.52;90.66;98790.09;5094133;28;20464;-74
2022/04/08 05:56:06;;;;;;;0.40;0.30;;;;;;;6.53;91.14;98789.78;5093672;28;20926;-74
2022/04/08 05:58:33;;;;;;;0.40;0.30;;;;;;;6.58;91.38;98783.44;5093653;28;20429;-75
2022/04/08 06:01:01;;;;;;;0.40;0.20;;;;;;;6.54;92.15;98785.19;5093875;28;20467;-75
2022/04/08 06:03:28;;;;;;;0.40;0.30;;;;;;;6.65;91.16;98791.81;5093662;28;20484;-75
2022/04/08 06:05:54;;;;;;;0.40;0.30;;;;;;;6.69;90.31;98808.91;5093647;28;20440;-76
2022/04/08 06:08:21;;;;;;;0.40;0.30;;;;;;;6.71;90.04;98806.69;5093663;28;20436;-71
2022/04/08 06:10:47;;;;;;;0.40;0.30;;;;;;;6.74;89.96;98802.56;5093773;28;20436;-71
2022/04/08 06:13:14;;;;;;;0.40;0.30;;;;;;;6.74;90.56;98806.06;5093467;28;20443;-71
2022/04/08 06:15:40;;;;;;;0.40;0.30;;;;;;;6.74;89.82;98816.81;5093140;28;20447;-72
2022/04/08 06:18:12;;;;;;;0.40;0.30;;;;;;;6.77;90.20;98813.50;5095067;28;20992;-72
2022/04/08 06:20:39;;;;;;;0.40;0.30;;;;;;;6.77;91.48;98810.81;5093591;28;20437;-71
2022/04/08 06:23:05;;;;;;;0.40;0.30;;;;;;;6.83;89.60;98831.03;5092848;28;20476;-72
2022/04/08 06:25:32;;;;;;;0.40;0.30;;;;;;;6.90;89.06;98819.78;5093676;28;20421;-74
2022/04/08 06:28:02;;;;;;;0.40;0.30;;;;;;;6.95;89.22;98861.88;5093058;28;20998;-72
2022/04/08 06:30:29;;;;;;;0.40;0.30;;;;;;;6.34;88.90;98904.16;5093445;28;20466;-72
2022/04/08 06:32:56;;;;;;;0.40;0.30;;;;;;;5.42;89.31;98901.28;5093322;28;20437;-75
2022/04/08 06:35:24;;;;;;;0.40;0.30;;;;;;;4.66;93.73;98902.06;5098194;28;20826;-74
2022/04/08 06:37:50;;;;;;;0.40;0.30;;;;;;;4.36;95.84;98908.09;5100172;28;20482;-71
2022/04/08 06:40:17;;;;;;;0.40;0.30;;;;;;;4.10;98.22;98908.63;5099658;28;20941;-75
2022/04/08 06:42:43;;;;;;;0.40;0.30;;;;;;;3.96;99.06;98927.38;5099844;28;20476;-75
2022/04/08 06:45:10;;;;;;;0.40;0.30;;;;;;;3.84;100.00;98929.75;5099767;28;20490;-74
2022/04/08 06:47:46;;;;;;;0.40;0.30;;;;;;;3.70;100.00;98934.31;5099999;28;20424;-73
2022/04/08 06:50:12;;;;;;;0.40;0.30;;;;;;;3.63;100.00;98945.44;5100186;28;20864;-73
2022/04/08 06:52:40;;;;;;;0.40;0.30;;;;;;;3.50;100.00;98933.59;5100297;28;20468;-77
2022/04/08 06:55:08;;;;;;;0.40;0.30;;;;;;;3.42;100.00;98944.97;5101010;28;20811;-77
2022/04/08 06:57:34;;;;;;;0.40;0.30;;;;;;;3.29;100.00;98935.81;5100698;28;20440;-77
2022/04/08 07:00:01;;;;;;;0.40;0.30;;;;;;;3.32;100.00;98909.56;5102712;28;20443;-78
2022/04/08 07:02:27;;;;;;;0.40;0.30;;;;;;;3.40;100.00;98898.97;5100461;28;20441;-77
2022/04/08 07:04:54;;;;;;;0.40;0.30;;;;;;;3.57;100.00;98909.09;5100465;28;20467;-77
2022/04/08 07:07:20;;;;;;;0.40;0.30;;;;;;;3.71;100.00;98927.84;5100137;28;20448;-76
2022/04/08 07:09:48;;;;;;;0.40;0.30;;;;;;;3.85;100.00;98914.47;5100813;28;20443;-77
2022/04/08 07:12:15;;;;;;;0.40;0.30;;;;;;;3.93;100.00;98932.53;5099666;28;20957;-76
2022/04/08 07:14:41;;;;;;;0.40;0.30;;;;;;;3.97;100.00;98933.53;5099642;28;20463;-76
2022/04/08 07:17:08;;;;;;;0.40;0.30;;;;;;;4.04;100.00;98950.00;5099372;28;20452;-76
2022/04/08 07:19:34;;;;;;;0.40;0.30;;;;;;;4.09;100.00;98949.09;5099688;28;20483;-75
2022/04/08 07:22:01;;;;;;;0.40;0.30;;;;;;;4.19;100.00;98954.25;5099835;28;20467;-75
2022/04/08 07:24:27;;;;;;;0.40;0.30;;;;;;;4.22;100.00;98959.03;5099168;28;20868;-75
2022/04/08 07:26:56;;;;;;;0.40;0.30;;;;;;;4.23;100.00;98956.03;5099366;28;20444;-75
2022/04/08 07:29:23;;;;;;;0.40;0.30;;;;;;;4.34;100.00;98969.22;5099772;28;20816;-72
2022/04/08 07:31:49;;;;;;;0.40;0.30;;;;;;;4.45;100.00;98965.25;5100181;28;20526;-73
2022/04/08 07:34:16;;;;;;;0.40;0.30;;;;;;;4.60;100.00;98954.19;5099228;28;20977;-74
2022/04/08 07:36:43;;;;;;;0.40;0.30;;;;;;;4.66;100.00;98970.97;5099560;28;20482;-75
2022/04/08 07:39:09;;;;;;;0.40;0.30;;;;;;;4.69;100.00;98981.91;5099430;28;20488;-75
2022/04/08 07:41:36;;;;;;;0.40;0.30;;;;;;;4.70;99.64;98980.81;5099442;28;20447;-73
2022/04/08 07:44:04;;;;;;;0.40;0.30;;;;;;;4.62;99.24;98978.81;5099295;28;20483;-74
2022/04/08 07:46:30;;;;;;;0.40;0.30;;;;;;;4.68;99.10;98974.13;5096451;28;20448;-74
2022/04/08 07:48:57;;;;;;;0.40;0.30;;;;;;;4.72;99.91;98980.50;5096010;28;20440;-75
2022/04/08 07:51:23;;;;;;;0.40;0.20;;;;;;;4.88;100.00;98980.97;5096214;28;20444;-73
2022/04/08 07:53:50;;;;;;;2.10;2.00;;;;;;;5.05;100.00;98979.22;5096124;28;20463;-75
2022/04/08 07:56:16;;;;;;;0.40;0.30;;;;;;;5.18;100.00;98988.31;5095739;28;20456;-74
2022/04/08 07:58:45;;;;;;;0.40;0.30;;;;;;;5.31;97.43;98987.47;5096024;28;20444;-76
2022/04/08 08:01:13;;;;;;;0.40;0.30;;;;;;;5.50;96.94;98989.94;5095993;28;20448;-75
2022/04/08 08:03:42;;;;;;;1.67;1.07;;;;;;;5.70;95.49;98999.38;5095784;28;20488;-75
2022/04/08 08:06:08;;;;;;;0.40;0.30;;;;;;;5.89;94.03;99003.72;5095598;28;20471;-74
2022/04/08 08:08:35;;;;;;;0.40;0.30;;;;;;;6.02;93.12;99010.94;5095798;28;20443;-75
2022/04/08 08:11:02;;;;;;;0.40;0.30;;;;;;;6.17;91.31;99012.44;5095491;28;21003;-72
2022/04/08 08:13:28;;;;;;;0.40;0.30;;;;;;;6.25;89.35;99009.00;5095742;28;20519;-72
2022/04/08 08:15:55;;;;;;;0.40;0.30;;;;;;;6.40;86.56;99005.88;5095649;28;20440;-72
2022/04/08 08:18:24;;;;;;;0.40;0.30;;;;;;;6.42;85.50;99024.38;5095297;28;20879;-73
2022/04/08 08:20:51;;;;;;;0.40;0.30;;;;;;;6.56;86.02;99025.06;5095618;28;20444;-72
2022/04/08 08:23:17;;;;;;;0.40;0.30;;;;;;;6.71;85.33;99032.69;5095147;28;20500;-72
2022/04/08 08:25:45;;;;;;;0.40;0.30;;;;;;;6.87;84.96;99016.09;5095550;28;20440;-73
2022/04/08 08:28:11;;;;;;;0.40;0.20;;;;;;;7.00;79.93;99028.63;5095079;28;20800;-74
2022/04/08 08:30:38;;;;;;;0.40;0.30;;;;;;;7.06;79.80;99035.44;5095478;28;20452;-73
2022/04/08 08:33:06;;;;;;;0.40;0.30;;;;;;;7.12;78.74;99039.53;5095433;28;20480;-73
2022/04/08 08:35:34;;;;;;;0.40;0.30;;;;;;;7.21;77.94;99050.31;5094955;28;20953;-74
2022/04/08 08:38:01;;;;;;;0.40;0.30;;;;;;;7.21;78.33;99040.34;5095219;28;20453;-74
2022/04/08 08:40:31;;;;;;;0.40;0.30;;;;;;;7.23;77.77;99048.13;5094909;28;20449;-74
2022/04/08 08:42:58;;;;;;;0.40;0.30;;;;;;;7.20;77.66;99062.19;5095026;28;20475;-73
2022/04/08 08:45:28;;;;;;;0.40;0.23;;;;;;;7.22;76.78;99060.00;5094832;28;21040;-74
2022/04/08 08:48:00;;;;;;;0.40;0.20;;;;;;;7.27;76.57;99055.25;5095142;28;20433;-73
2022/04/08 08:50:28;;;;;;;0.40;0.30;;;;;;;7.46;75.21;99065.69;5095135;28;20432;-73
2022/04/08 08:52:56;;;;;;;0.40;0.30;;;;;;;7.54;75.25;99051.44;5094970;28;20869;-74
2022/04/08 08:55:24;;;;;;;0.40;0.30;;;;;;;7.62;74.41;99055.22;5094897;28;20436;-73
2022/04/08 08:57:52;;;;;;;0.40;0.30;;;;;;;7.78;72.76;99061.69;5094927;28;20647;-74
2022/04/08 09:00:22;;;;;;;0.40;0.27;;;;;;;7.98;72.19;99062.16;5094975;28;20449;-74
2022/04/08 09:02:49;;;;;;;0.40;0.30;;;;;;;8.00;72.30;99052.59;5094883;28;20815;-74
2022/04/08 09:05:17;;;;;;;0.40;0.30;;;;;;;8.01;67.97;99077.66;5094275;28;20480;-72
2022/04/08 09:07:53;;;;;;;0.40;0.30;;;;;;;7.95;68.63;99093.22;5094285;28;20934;-73
2022/04/08 09:10:26;;;;;;;0.40;0.30;;;;;;;7.78;69.78;99080.56;5094875;28;20460;-74
2022/04/08 09:12:55;;;;;;;0.40;0.30;;;;;;;7.69;70.69;99087.06;5094664;28;20429;-73
2022/04/08 09:15:21;;;;;;;0.40;0.30;;;;;;;7.69;72.45;99077.09;5094683;28;20495;-74
2022/04/08 09:17:48;;;;;;;0.40;0.30;;;;;;;7.76;72.74;99085.50;5094505;28;20443;-74
2022/04/08 09:20:15;;;;;;;0.40;0.30;;;;;;;7.82;71.66;99075.31;5094439;28;20834;-73
2022/04/08 09:22:41;;;;;;;0.40;0.30;;;;;;;7.91;72.35;99083.41;5094443;28;20451;-74
2022/04/08 09:25:09;;;;;;;0.40;0.30;;;;;;;7.95;68.70;99095.91;5093790;28;20875;-74
2022/04/08 09:27:38;;;;;;;0.40;0.30;;;;;;;7.90;69.07;99092.59;5094011;28;20493;-74
2022/04/08 09:30:05;;;;;;;0.40;0.20;;;;;;;7.98;70.19;99083.72;5094211;28;20451;-73
2022/04/08 09:32:32;;;;;;;0.40;0.30;;;;;;;8.05;71.78;99086.69;5094431;28;20536;-73
2022/04/08 09:34:58;;;;;;;0.40;0.30;;;;;;;8.04;67.13;99077.03;5093767;28;20457;-75
2022/04/08 09:37:25;;;;;;;0.40;0.30;;;;;;;8.11;68.81;99077.34;5094158;28;20476;-73
2022/04/08 09:39:56;;;;;;;0.40;0.20;;;;;;;8.11;66.82;99088.13;5093756;28;20968;-73
2022/04/08 09:42:23;;;;;;;0.40;0.30;;;;;;;8.19;66.06;99079.22;5094033;28;20464;-74
2022/04/08 09:44:52;;;;;;;0.40;0.30;;;;;;;8.35;67.42;99084.88;5093851;28;20484;-73
2022/04/08 09:47:18;;;;;;;0.40;0.30;;;;;;;8.52;66.58;99086.75;5093962;28;20472;-74
2022/04/08 09:49:44;;;;;;;0.40;0.30;;;;;;;8.54;65.49;99079.09;5093586;28;20942;-71
2022/04/08 09:52:12;;;;;;;0.40;0.30;;;;;;;8.58;66.24;99088.13;5093504;28;20942;-70
2022/04/08 09:54:43;;;;;;;0.40;0.30;;;;;;;8.67;61.52;99080.78;5093766;28;20460;-70
2022/04/08 09:57:16;;;;;;;0.40;0.20;;;;;;;8.25;59.92;99083.31;5093835;28;20489;-72
2022/04/08 09:59:45;;;;;;;0.40;0.30;;;;;;;8.36;60.99;99083.75;5094064;28;20428;-69
2022/04/08 10:02:14;;;;;;;0.40;0.30;;;;;;;8.46;62.64;99090.75;5093754;28;20432;-70
2022/04/08 10:04:41;;;;;;;0.40;0.30;;;;;;;8.54;61.81;99089.88;5093512;28;20510;-70
2022/04/08 10:07:07;;;;;;;0.40;0.30;;;;;;;8.56;62.71;99087.69;5093628;28;20444;-69
2022/04/08 10:09:51;;;;;;;0.40;0.30;;;;;;;8.50;62.37;99091.66;5092730;28;20968;-69
2022/04/08 10:12:28;;;;;;;0.40;0.30;;;;;;;8.54;63.50;99090.72;5093334;28;20421;-69
2022/04/08 10:15:05;;;;;;;0.40;0.30;;;;;;;8.75;63.79;99079.94;5093827;28;20448;-70
2022/04/08 10:17:33;;;;;;;0.40;0.30;;;;;;;8.93;61.58;99080.66;5093560;28;20434;-68
2022/04/08 10:20:18;;;;;;;0.40;0.30;;;;;;;9.08;60.42;99095.50;5093484;28;20440;-69
2022/04/08 10:22:44;;;;;;;0.40;0.30;;;;;;;9.14;62.36;99096.88;5093454;28;20431;-69
2022/04/08 10:25:15;;;;;;;0.40;0.30;;;;;;;9.36;61.17;99071.47;5092858;28;20549;-69
2022/04/08 10:27:43;;;;;;;0.40;0.30;;;;;;;9.37;58.03;99099.28;5093442;28;20456;-69
2022/04/08 10:30:14;;;;;;;0.40;0.30;;;;;;;9.34;55.32;99101.53;5093337;28;20497;-69
2022/04/08 10:32:43;;;;;;;0.40;0.30;;;;;;;9.36;57.81;99109.28;5093331;28;20435;-69
2022/04/08 10:35:15;;;;;;;0.40;0.30;;;;;;;9.47;56.90;99069.13;5093229;28;20553;-70
2022/04/08 10:37:42;;;;;;;0.40;0.30;;;;;;;9.68;54.81;99080.72;5093280;28;20880;-70
2022/04/08 10:40:11;;;;;;;0.40;0.20;;;;;;;9.69;54.48;99078.81;5093248;28;20483;-69
2022/04/08 10:42:37;;;;;;;0.40;0.30;;;;;;;9.67;56.25;99081.06;5093269;28;20444;-70
2022/04/08 10:45:12;;;;;;;0.40;0.30;;;;;;;9.57;55.04;99084.97;5092779;28;20488;-70
2022/04/08 10:47:48;;;;;;;0.40;0.30;;;;;;;9.44;55.42;99094.13;5093188;28;20469;-70
2022/04/08 10:50:25;;;;;;;0.40;0.30;;;;;;;9.25;56.83;99087.28;5092651;28;20831;-69
2022/04/08 10:53:06;;;;;;;0.40;0.30;;;;;;;9.12;55.89;99085.63;5092775;28;20463;-70
2022/04/08 10:55:33;;;;;;;0.40;0.30;;;;;;;8.91;57.24;99087.50;5093153;28;20471;-70
2022/04/08 10:58:00;;;;;;;0.40;0.30;;;;;;;8.60;61.62;99083.22;5093115;28;20878;-70
2022/04/08 11:00:27;;;;;;;0.40;0.30;;;;;;;8.28;64.37;99088.06;5093120;28;20437;-69
2022/04/08 11:02:56;;;;;;;0.40;0.30;;;;;;;8.14;66.80;99087.47;5093187;28;20527;-70
2022/04/08 11:05:22;;;;;;;0.40;0.30;;;;;;;8.13;65.76;99082.41;5092754;28;20515;-69
2022/04/08 11:07:50;;;;;;;0.40;0.30;;;;;;;8.18;68.20;99074.91;5093049;28;20443;-69
2022/04/08 11:10:19;;;;;;;0.40;0.30;;;;;;;8.31;66.79;99060.44;5093045;28;20472;-69
2022/04/08 11:12:46;;;;;;;0.40;0.27;;;;;;;8.44;67.19;99069.47;5092933;28;20443;-70
2022/04/08 11:15:14;;;;;;;0.40;0.20;;;;;;;8.52;67.06;99065.16;5092815;28;20448;-70
2022/04/08 11:17:40;;;;;;;0.40;0.30;;;;;;;8.50;65.40;99062.78;5092904;28;20440;-70
2022/04/08 11:20:11;;;;;;;0.40;0.20;;;;;;;8.40;64.31;99065.81;5092837;28;20445;-70
2022/04/08 11:22:42;;;;;;;0.40;0.30;;;;;;;8.48;67.33;99070.41;5095980;28;20432;-70
2022/04/08 11:25:10;;;;;;;0.40;0.30;;;;;;;8.72;64.99;99069.00;5096136;28;20535;-70
2022/04/08 11:27:36;;;;;;;0.40;0.30;;;;;;;9.37;64.73;99073.03;5096724;28;20463;-70
2022/04/08 11:30:09;;;;;;;0.40;0.30;;;;;;;10.11;62.39;99068.69;5096561;28;20511;-70
2022/04/08 11:32:38;;;;;;;0.40;0.20;;;;;;;11.15;58.07;99055.75;5096566;28;20424;-71
2022/04/08 11:35:12;;;;;;;0.40;0.30;;;;;;;11.86;54.59;99063.19;5096414;28;20460;-69
2022/04/08 11:37:39;;;;;;;0.40;0.30;;;;;;;11.33;51.24;99068.69;5096156;28;20933;-70
2022/04/08 11:40:06;;;;;;;0.40;0.27;;;;;;;10.78;54.19;99053.88;5096348;28;20869;-70
2022/04/08 11:42:33;;;;;;;0.40;0.30;;;;;;;10.45;52.73;99067.53;5096020;28;20942;-70